Cash's Hourly Summary for Friday, March 17, 2017
Hour Temp
(f)
RH
(%)
Solar Rad.
(MJ/m2)
Rainfall
(in)
Wind
(mph)
3/17/2017 12:00 AM 63 81 0 0 5.97
3/17/2017 1:00 AM 64 83 0 0 7.11
3/17/2017 2:00 AM 65 82 0 0 9.14
3/17/2017 3:00 AM 65 82 0 0 7.76
3/17/2017 4:00 AM 64 83 0 0 5.7
3/17/2017 5:00 AM 66 78 0 0 6.92
3/17/2017 6:00 AM 66 77 0 0 7.85
3/17/2017 7:00 AM 66 79 0 0 7.35
3/17/2017 8:00 AM 66 79 0.01 0 5.75
3/17/2017 9:00 AM 66 77 0.21 0 6.14
3/17/2017 10:00 AM 68 74 0.4 0 7.91
3/17/2017 11:00 AM 70 68 1.06 0 9.19
3/17/2017 12:00 PM 71 67 1.25 0 9.74
3/17/2017 1:00 PM 71 67 1.01 0 9.05
3/17/2017 2:00 PM 72 66 0.98 0 9.63
3/17/2017 3:00 PM 72 66 0.83 0 9.56
3/17/2017 4:00 PM 72 66 1.01 0 8.33
3/17/2017 5:00 PM 72 64 0.52 0 8.24
3/17/2017 6:00 PM 74 60 0.66 0 7.36
3/17/2017 7:00 PM 74 60 0.22 0 5.04
3/17/2017 8:00 PM 73 63 0.02 0 2.11
3/17/2017 9:00 PM 70 65 0 0 0.01
3/17/2017 10:00 PM 70 66 0 0 0.93
3/17/2017 11:00 PM 69 67 0 0 0.05
Data Summary 68 71 8.18 0.00 6.54